Latest Weather Observations for Parawa West

IDS60801

Issued at 12:35 pm CST Saturday 26 July 2014 (issued every 30 minutes, with the page automatically refreshed every 10 minutes)

About weather observations | Map of weather stations | Latest weather observations for SA | Other Formats
Station Details ID: 023875 Name: SECOND VALLEY FOREST AWS Lat: -35.57 Lon: 138.29 Height: 341.0 m
Data from the previous 72 hours. | See also: Recent months at Parawa West
Date/Time
CST
Temp
°C
App
Temp
°C
Dew
Point
Rel
Hum
%
Delta-T
°C
Wind Press
QNH
hPa
Press
MSL
hPa
Rain
since 9 am
mm
Dir
 
Spd
km/h
Gust
km/h
Spd
kts
Gust
kts
26/12:30pm 11.4 8.5 9.7 89 0.9 NNW 15 26 8 14 1025.6 1026.0 0.0
26/12:00pm 11.2 7.9 9.6 90 0.8 NW 17 28 9 15 1026.1 1026.6 0.0
26/11:30am 11.3 8.4 9.6 89 0.9 NW 15 26 8 14 1026.6 1027.0 0.0
26/11:00am 11.0 7.8 9.8 92 0.6 NNW 17 24 9 13 1026.8 - 0.0
26/10:30am 10.7 8.7 10.1 96 0.3 NNW 11 22 6 12 1026.8 1027.2 0.0
26/10:00am 10.6 8.6 10.3 98 0.2 NW 11 17 6 9 1026.9 - 0.0
26/09:30am 10.2 8.5 9.9 98 0.2 NW 9 15 5 8 1026.8 1027.2 0.0
26/09:00am 9.8 8.9 9.3 97 0.3 NW 4 7 2 4 1026.7 1027.1 0.4
26/08:30am 9.5 8.2 9.2 98 0.2 NW 6 9 3 5 1026.4 1026.9 0.4
26/08:00am 8.9 7.3 8.8 99 0.0 NNW 7 9 4 5 1025.9 - 0.4
26/07:30am 8.3 6.7 8.2 99 0.0 WNW 6 7 3 4 1025.6 1026.0 0.2
26/07:00am 8.6 7.1 8.5 99 0.0 WNW 6 7 3 4 1025.2 - 0.2
26/06:30am 8.8 7.4 8.7 99 0.0 WNW 6 7 3 4 1025.0 1025.4 0.2
26/06:00am 8.6 7.1 8.5 99 0.0 WNW 6 7 3 4 1024.8 1025.2 0.2
26/05:30am 8.8 7.4 8.7 99 0.0 WNW 6 7 3 4 1024.5 1024.9 0.2
26/05:00am 8.7 6.7 8.6 99 0.0 WNW 9 11 5 6 1024.1 - 0.2
26/04:30am 9.1 7.6 9.0 99 0.0 WNW 7 9 4 5 1024.1 1024.5 0.2
26/04:00am 9.1 7.7 9.0 99 0.0 WNW 6 7 3 4 1023.8 - 0.2
26/03:30am 9.0 7.4 8.9 99 0.0 NW 7 9 4 5 1023.8 1024.2 0.2
26/03:00am 9.0 7.6 8.7 98 0.1 W 6 9 3 5 1023.8 1024.2 0.2
26/02:30am 9.3 8.3 8.8 97 0.2 W 4 6 2 3 1023.6 1023.9 0.2
26/02:00am 9.6 8.1 9.3 98 0.2 W 7 11 4 6 1023.1 - 0.2
26/01:30am 9.7 8.3 9.6 99 0.1 WNW 7 9 4 5 1023.1 1023.5 0.2
26/01:00am 9.8 8.1 9.7 99 0.1 WNW 9 13 5 7 1022.9 - 0.2
26/12:30am 9.9 8.5 9.6 98 0.2 NW 7 11 4 6 1023.1 1023.5 0.2
26/12:00am 9.9 8.7 9.6 98 0.2 W 6 7 3 4 1023.0 1023.4 0.2
 
Date/Time
CST
Temp
°C
App
Temp
°C
Dew
Point
Rel
Hum
%
Delta-T
°C
Wind Press
QNH
hPa
Press
MSL
hPa
Rain
since 9 am
mm
Dir
 
Spd
km/h
Gust
km/h
Spd
kts
Gust
kts
25/11:30pm 9.9 8.7 9.4 97 0.3 W 6 9 3 5 1022.9 1023.3 0.2
25/11:00pm 9.9 8.5 9.4 97 0.3 W 7 9 4 5 1022.7 - 0.2
25/10:30pm 9.8 8.3 9.3 97 0.3 WNW 7 9 4 5 1022.6 1023.0 0.2
25/10:00pm 9.8 7.9 9.2 96 0.3 W 9 13 5 7 1022.4 - 0.2
25/09:30pm 9.6 8.2 9.0 96 0.3 WNW 6 7 3 4 1022.3 1022.7 0.2
25/09:00pm 9.4 7.9 8.6 95 0.4 W 6 7 3 4 1022.1 1022.5 0.2
25/08:30pm 9.6 8.6 8.8 95 0.4 WNW 4 7 2 4 1021.8 1022.2 0.2
25/08:00pm 9.6 8.2 8.7 94 0.4 WNW 6 7 3 4 1021.7 - 0.2
25/07:30pm 9.7 8.1 8.6 93 0.5 WNW 7 11 4 6 1021.4 1021.8 0.2
25/07:00pm 10.3 8.4 9.2 93 0.6 WNW 9 13 5 7 1021.0 - 0.2
25/06:30pm 10.5 9.4 9.9 96 0.3 WNW 6 9 3 5 1020.7 1021.0 0.2
25/06:00pm 10.7 9.4 10.1 96 0.3 WNW 7 13 4 7 1020.4 1020.7 0.2
25/05:30pm 10.9 9.8 10.1 95 0.4 WNW 6 9 3 5 1020.0 1020.4 0.2
25/05:00pm 11.0 9.4 10.1 94 0.5 W 9 13 5 7 1019.6 - 0.2
25/04:30pm 11.4 9.8 10.1 92 0.7 W 9 15 5 8 1019.3 1019.7 0.2
25/04:00pm 11.6 9.1 9.7 88 1.0 WNW 13 19 7 10 1018.8 - 0.0
25/03:30pm 12.0 9.2 9.9 87 1.1 NW 15 22 8 12 1018.6 1018.9 0.0
25/03:00pm 12.1 10.2 10.5 90 0.8 NW 11 17 6 9 1018.2 1018.5 0.0
25/02:30pm 12.4 10.5 10.5 88 1.0 NW 11 20 6 11 1017.8 1018.1 0.0
25/02:00pm 12.8 10.5 10.5 86 1.2 WNW 13 19 7 10 1017.7 - 0.0
25/01:30pm 13.2 10.8 10.0 81 1.7 NW 13 20 7 11 1017.6 1017.9 0.0
25/01:00pm 12.5 9.9 9.3 81 1.6 NW 13 20 7 11 1017.7 - 0.0
25/12:30pm 12.2 9.5 9.0 81 1.6 NW 13 19 7 10 1017.9 1018.2 0.0
25/12:00pm 11.7 9.7 10.3 91 0.7 NW 11 15 6 8 1018.1 1018.4 0.0
25/11:30am 11.9 9.5 10.1 89 0.9 WNW 13 22 7 12 1018.1 1018.4 0.0
25/11:00am 11.7 9.5 9.4 86 1.2 W 11 15 6 8 1018.1 - 0.0
25/10:30am 11.4 10.1 10.0 91 0.7 NW 7 13 4 7 1018.0 1018.3 0.0
25/10:00am 10.9 9.6 10.0 94 0.5 WNW 7 11 4 6 1017.9 - 0.0
25/09:30am 11.0 9.0 10.1 94 0.5 WNW 11 17 6 9 1017.5 1017.8 0.0
25/09:00am 10.6 9.4 10.4 99 0.1 WNW 7 9 4 5 1017.3 1017.6 1.0
25/08:30am 9.8 8.4 9.7 99 0.1 WNW 7 9 4 5 1016.7 1017.1 1.0
25/08:00am 9.5 8.1 9.5 100 0.0 NW 7 9 4 5 1016.3 - 1.0
25/07:30am 9.6 8.4 9.6 100 0.0 WNW 6 7 3 4 1015.9 1016.2 1.0
25/07:00am 9.6 8.2 9.5 99 0.1 NW 7 11 4 6 1015.5 - 1.0
25/06:30am 9.5 8.1 9.4 99 0.1 WNW 7 11 4 6 1015.1 1015.4 1.0
25/06:00am 9.5 8.1 9.4 99 0.1 WNW 7 9 4 5 1014.7 1015.0 1.0
25/05:30am 9.2 7.7 9.1 99 0.1 NW 7 9 4 5 1014.2 1014.5 1.0
25/05:00am 9.1 7.1 8.8 98 0.1 WNW 9 13 5 7 1013.8 - 1.0
25/04:30am 9.3 7.4 9.0 98 0.2 WNW 9 13 5 7 1013.4 1013.7 1.0
25/04:00am 9.7 7.1 9.2 97 0.3 WNW 13 19 7 10 1013.2 - 0.8
25/03:30am 10.0 7.4 9.5 97 0.3 WNW 13 19 7 10 1012.9 1013.2 0.8
25/03:00am 10.2 7.7 9.7 97 0.3 WNW 13 20 7 11 1012.8 1013.1 0.8
25/02:30am 10.1 7.6 9.6 97 0.3 WNW 13 20 7 11 1012.5 1012.8 0.8
25/02:00am 10.0 7.4 9.5 97 0.3 WNW 13 20 7 11 1012.2 - 0.8
25/01:30am 10.3 7.4 9.7 96 0.3 WNW 15 20 8 11 1011.9 1012.2 0.8
25/01:00am 10.5 6.6 9.4 93 0.6 WNW 20 32 11 17 1011.6 - 0.8
25/12:30am 10.4 6.5 9.5 94 0.5 W 20 32 11 17 1011.6 1011.9 0.8
25/12:00am 10.6 6.9 10.0 96 0.3 WNW 20 33 11 18 1011.4 1011.7 0.8
 
Date/Time
CST
Temp
°C
App
Temp
°C
Dew
Point
Rel
Hum
%
Delta-T
°C
Wind Press
QNH
hPa
Press
MSL
hPa
Rain
since 9 am
mm
Dir
 
Spd
km/h
Gust
km/h
Spd
kts
Gust
kts
24/11:30pm 10.8 8.1 10.2 96 0.3 WNW 15 24 8 13 1011.2 1011.4 0.8
24/11:00pm 10.5 6.8 9.6 94 0.5 WNW 19 26 10 14 1011.1 - 0.8
24/10:30pm 10.6 7.4 10.1 97 0.3 WNW 17 30 9 16 1010.7 1011.0 0.8
24/10:00pm 10.5 7.0 10.3 99 0.1 WNW 19 30 10 16 1010.5 - 0.8
24/09:30pm 10.7 7.1 10.4 98 0.2 NW 20 37 11 20 1010.4 1010.7 0.8
24/09:00pm 10.9 7.3 10.4 97 0.3 WNW 20 30 11 16 1010.1 1010.4 0.8
24/08:30pm 10.8 7.3 10.2 96 0.3 WNW 19 32 10 17 1009.9 1010.2 0.8
24/08:00pm 10.9 7.3 10.4 97 0.3 WNW 20 33 11 18 1009.5 - 0.8
24/07:30pm 10.9 7.3 10.6 98 0.2 WNW 20 30 11 16 1009.2 1009.5 0.8
24/07:00pm 10.8 7.2 10.5 98 0.2 WNW 20 33 11 18 1008.9 - 0.8
24/06:30pm 10.9 7.8 10.4 97 0.3 NW 17 26 9 14 1008.5 1008.7 0.8
24/06:00pm 10.8 7.3 10.2 96 0.3 NW 19 30 10 16 1008.2 1008.4 0.8
24/05:30pm 10.9 7.2 10.1 95 0.4 NW 20 32 11 17 1007.7 1008.0 0.8
24/05:00pm 11.2 7.2 10.3 94 0.5 NW 22 39 12 21 1007.4 - 0.8
24/04:30pm 11.3 7.3 10.4 94 0.5 NW 22 41 12 22 1007.2 1007.5 0.8
24/04:00pm 11.3 7.6 10.2 93 0.6 NW 20 33 11 18 1006.8 - 0.8
24/03:30pm 11.2 7.5 10.3 94 0.5 WNW 20 41 11 22 1006.3 1006.6 0.8
24/03:00pm 11.0 6.5 10.1 94 0.5 NW 24 35 13 19 1005.9 1006.1 0.8
24/02:30pm 11.2 7.6 10.4 95 0.4 NW 20 37 11 20 1005.4 1005.6 0.8
24/02:00pm 11.2 6.8 10.4 95 0.4 NW 24 41 13 22 1005.3 - 0.8
24/01:30pm 11.2 7.2 10.4 95 0.4 NW 22 35 12 19 1005.3 1005.5 0.8
24/01:07pm 11.0 5.7 9.8 92 0.6 NW 28 46 15 25 1005.4 - 0.8
24/01:00pm 10.9 6.9 10.4 97 0.3 NW 22 35 12 19 1005.4 - 0.8
24/12:40pm 10.8 5.6 10.2 96 0.3 NW 28 48 15 26 1005.4 - 0.8
24/12:30pm 10.8 6.3 10.2 96 0.3 NW 24 39 13 21 1005.5 1005.7 0.8
24/12:00pm 10.7 6.3 10.4 98 0.2 NW 24 41 13 22 1005.8 1006.0 0.8
24/11:30am 10.6 7.0 10.4 99 0.1 NW 20 32 11 17 1006.0 1006.2 0.8
24/11:00am 10.2 5.7 9.9 98 0.2 NW 24 41 13 22 1006.0 - 0.8
24/10:51am 10.1 4.7 9.6 97 0.3 NW 28 48 15 26 1006.0 - 0.8
24/10:30am 10.4 6.2 9.6 95 0.4 NW 22 35 12 19 1005.8 1006.0 0.8
24/10:00am 9.9 4.9 9.4 97 0.3 WNW 26 35 14 19 1005.6 - 0.8
24/09:30am 9.9 5.4 9.9 100 0.0 NW 24 46 13 25 1005.2 1005.4 0.8
24/09:00am 9.5 6.6 9.5 100 0.0 NNW 15 26 8 14 1004.7 1005.0 23.0
24/08:30am 9.6 6.3 9.6 100 0.0 NNW 17 28 9 15 1004.5 1004.8 23.0
24/08:00am 9.4 6.4 9.4 100 0.0 NW 15 24 8 13 1004.1 - 22.8
24/07:30am 9.7 8.0 9.7 100 0.0 NNW 9 17 5 9 1003.8 1004.0 22.2
24/07:00am 9.6 7.8 9.6 100 0.0 NNW 9 20 5 11 1003.7 - 22.2
24/06:30am 9.3 8.4 9.2 99 0.1 NNW 4 7 2 4 1003.5 1003.7 22.0
24/06:00am 8.9 7.3 8.8 99 0.0 NNE 7 19 4 10 1003.3 1003.5 21.0
24/05:30am 8.7 7.1 8.6 99 0.0 NE 7 19 4 10 1003.3 1003.5 20.4
24/05:00am 8.4 6.9 8.3 99 0.0 N 6 11 3 6 1003.3 - 20.4
24/04:30am 8.2 6.0 7.9 98 0.1 ENE 9 22 5 12 1003.5 1003.7 20.0
24/04:00am 8.0 5.0 7.6 97 0.2 NE 13 26 7 14 1003.8 - 19.8
24/03:30am 7.9 4.1 7.5 97 0.2 ENE 17 32 9 17 1004.0 1004.3 19.0
24/03:00am 7.9 4.0 7.3 96 0.3 NE 17 26 9 14 1004.3 1004.6 17.2
24/02:30am 7.9 4.4 7.1 95 0.4 NE 15 24 8 13 1004.7 1005.0 16.2
24/02:00am 8.1 4.2 7.0 93 0.5 NE 17 30 9 16 1005.3 - 14.0
24/01:30am 8.2 4.3 7.1 93 0.5 NE 17 28 9 15 1005.6 1005.8 13.4
24/01:00am 8.7 5.1 6.8 88 0.9 NE 15 24 8 13 1006.2 - 12.6
24/12:30am 8.3 5.4 6.4 88 0.9 NE 11 22 6 12 1006.6 1006.9 12.4
24/12:00am 8.4 3.7 6.0 85 1.1 NE 20 28 11 15 1007.0 1007.3 12.0
 
Date/Time
CST
Temp
°C
App
Temp
°C
Dew
Point
Rel
Hum
%
Delta-T
°C
Wind Press
QNH
hPa
Press
MSL
hPa
Rain
since 9 am
mm
Dir
 
Spd
km/h
Gust
km/h
Spd
kts
Gust
kts
23/11:30pm 8.5 1.9 6.0 84 1.2 ENE 30 35 16 19 1007.3 1007.6 12.0
23/11:00pm 8.2 2.0 6.0 86 1.0 ENE 28 39 15 21 1008.3 - 12.0
23/10:30pm 8.0 2.1 6.0 87 0.9 NE 26 39 14 21 1008.7 1008.9 12.0
23/10:00pm 8.1 2.3 6.4 89 0.8 ENE 26 37 14 20 1009.3 - 12.0
23/09:30pm 8.5 2.8 6.5 87 0.9 NE 26 39 14 21 1009.7 1010.0 12.0
23/09:00pm 8.2 3.6 6.7 90 0.7 ENE 20 35 11 19 1010.3 1010.6 12.0
23/08:30pm 8.1 2.8 6.9 92 0.6 NE 24 35 13 19 1010.4 1010.7 12.0
23/08:00pm 8.1 3.6 7.0 93 0.5 NE 20 33 11 18 1010.5 - 12.0
23/07:30pm 7.9 3.4 6.8 93 0.5 NE 20 39 11 21 1010.6 1010.9 11.6
23/07:00pm 8.0 3.5 6.9 93 0.5 NE 20 33 11 18 1010.8 - 10.0
23/06:30pm 8.2 5.1 7.1 93 0.5 NE 13 32 7 17 1011.5 1011.8 7.4
23/06:00pm 8.2 6.2 7.3 94 0.4 NNE 7 17 4 9 1011.5 1011.8 4.6
23/05:30pm 8.4 5.3 7.2 92 0.6 NE 13 19 7 10 1010.9 1011.2 3.4
23/05:00pm 8.7 4.8 7.0 89 0.8 NE 17 24 9 13 1011.1 - 2.8
23/04:30pm 9.5 4.3 7.1 85 1.2 ENE 24 37 13 20 1010.9 1011.2 2.6
23/04:00pm 10.4 5.7 7.6 83 1.4 ENE 22 39 12 21 1010.9 - 2.6
23/03:30pm 10.3 4.5 7.9 85 1.2 ENE 28 41 15 22 1010.8 1011.1 2.6
23/03:00pm 10.3 5.7 8.2 87 1.0 ENE 22 33 12 18 1011.3 1011.6 2.6
23/02:30pm 9.9 4.9 8.0 88 0.9 ENE 24 32 13 17 1011.3 1011.6 2.6
23/02:00pm 9.4 7.0 8.5 94 0.4 NE 11 20 6 11 1012.5 - 1.8
23/01:30pm 9.4 8.2 8.2 92 0.6 N 4 9 2 5 1013.6 1013.9 0.6
23/01:00pm 10.2 7.3 6.7 79 1.7 NW 11 24 6 13 1014.4 - 0.0

Other Formats:

Comma delimited format used in spreadsheet applications
http://www.bom.gov.au/fwo/IDS60801/IDS60801.94811.axf

JavaScript Object Notation format (JSON) in row-major order
http://www.bom.gov.au/fwo/IDS60801/IDS60801.94811.json